sensor_id;sensor_type;location;lat;lon;timestamp;temperature;humidity
45643;DHT22;31358;46.008;11.144;2023-07-13T00:00:35;19.30;99.90
45643;DHT22;31358;46.008;11.144;2023-07-13T00:03:02;19.00;99.90
45643;DHT22;31358;46.008;11.144;2023-07-13T00:05:28;19.10;99.90
45643;DHT22;31358;46.008;11.144;2023-07-13T00:07:54;19.20;99.90
45643;DHT22;31358;46.008;11.144;2023-07-13T00:10:20;19.40;99.90
45643;DHT22;31358;46.008;11.144;2023-07-13T00:12:46;19.30;99.90
45643;DHT22;31358;46.008;11.144;2023-07-13T00:15:18;19.50;99.90
45643;DHT22;31358;46.008;11.144;2023-07-13T00:17:57;19.60;99.90
45643;DHT22;31358;46.008;11.144;2023-07-13T00:20:24;19.50;99.90
45643;DHT22;31358;46.008;11.144;2023-07-13T00:22:51;19.60;99.90
45643;DHT22;31358;46.008;11.144;2023-07-13T00:25:21;19.50;99.90
45643;DHT22;31358;46.008;11.144;2023-07-13T00:27:51;19.40;99.90
45643;DHT22;31358;46.008;11.144;2023-07-13T00:30:17;19.40;99.90
45643;DHT22;31358;46.008;11.144;2023-07-13T00:32:43;19.40;99.90
45643;DHT22;31358;46.008;11.144;2023-07-13T00:35:09;19.40;99.90
45643;DHT22;31358;46.008;11.144;2023-07-13T00:37:34;19.30;99.90
45643;DHT22;31358;46.008;11.144;2023-07-13T00:40:03;19.30;99.90
45643;DHT22;31358;46.008;11.144;2023-07-13T00:42:29;19.40;99.90
45643;DHT22;31358;46.008;11.144;2023-07-13T00:47:42;19.20;99.90
45643;DHT22;31358;46.008;11.144;2023-07-13T00:50:11;19.20;99.90
45643;DHT22;31358;46.008;11.144;2023-07-13T00:52:40;19.20;99.90
45643;DHT22;31358;46.008;11.144;2023-07-13T00:55:07;19.20;99.90
45643;DHT22;31358;46.008;11.144;2023-07-13T00:57:35;19.40;99.90
45643;DHT22;31358;46.008;11.144;2023-07-13T01:00:04;19.30;99.90
45643;DHT22;31358;46.008;11.144;2023-07-13T01:02:36;19.30;99.90
45643;DHT22;31358;46.008;11.144;2023-07-13T01:05:09;19.40;99.90
45643;DHT22;31358;46.008;11.144;2023-07-13T01:07:35;19.00;99.90
45643;DHT22;31358;46.008;11.144;2023-07-13T01:10:03;18.90;99.90
45643;DHT22;31358;46.008;11.144;2023-07-13T01:12:28;19.00;99.90
45643;DHT22;31358;46.008;11.144;2023-07-13T01:15:00;19.20;99.90
45643;DHT22;31358;46.008;11.144;2023-07-13T01:17:27;19.30;99.90
45643;DHT22;31358;46.008;11.144;2023-07-13T01:19:54;19.30;99.90
45643;DHT22;31358;46.008;11.144;2023-07-13T01:22:19;19.20;99.90
45643;DHT22;31358;46.008;11.144;2023-07-13T01:24:52;19.20;99.90
45643;DHT22;31358;46.008;11.144;2023-07-13T01:27:22;19.20;99.90
45643;DHT22;31358;46.008;11.144;2023-07-13T01:29:50;18.80;99.90
45643;DHT22;31358;46.008;11.144;2023-07-13T01:32:20;18.80;99.90
45643;DHT22;31358;46.008;11.144;2023-07-13T01:34:50;18.70;99.90
45643;DHT22;31358;46.008;11.144;2023-07-13T01:37:17;18.50;99.90
45643;DHT22;31358;46.008;11.144;2023-07-13T01:39:42;18.60;99.90
45643;DHT22;31358;46.008;11.144;2023-07-13T01:42:08;18.50;99.90
45643;DHT22;31358;46.008;11.144;2023-07-13T01:44:34;18.60;99.90
45643;DHT22;31358;46.008;11.144;2023-07-13T01:47:01;18.70;99.90
45643;DHT22;31358;46.008;11.144;2023-07-13T01:49:27;18.70;99.90
45643;DHT22;31358;46.008;11.144;2023-07-13T01:51:52;18.50;99.90
45643;DHT22;31358;46.008;11.144;2023-07-13T01:54:18;18.60;99.90
45643;DHT22;31358;46.008;11.144;2023-07-13T01:56:44;19.10;99.90
45643;DHT22;31358;46.008;11.144;2023-07-13T01:59:09;19.20;99.90
45643;DHT22;31358;46.008;11.144;2023-07-13T02:01:35;19.10;99.90
45643;DHT22;31358;46.008;11.144;2023-07-13T02:04:01;19.00;99.90
45643;DHT22;31358;46.008;11.144;2023-07-13T02:06:27;19.00;99.90
45643;DHT22;31358;46.008;11.144;2023-07-13T02:08:52;18.80;99.90
45643;DHT22;31358;46.008;11.144;2023-07-13T02:11:18;18.80;99.90
45643;DHT22;31358;46.008;11.144;2023-07-13T02:13:44;19.00;99.90
45643;DHT22;31358;46.008;11.144;2023-07-13T02:16:09;19.00;99.90
45643;DHT22;31358;46.008;11.144;2023-07-13T02:18:35;19.20;99.90
45643;DHT22;31358;46.008;11.144;2023-07-13T02:21:01;19.20;99.90
45643;DHT22;31358;46.008;11.144;2023-07-13T02:23:28;19.30;99.90
45643;DHT22;31358;46.008;11.144;2023-07-13T02:25:58;19.20;99.90
45643;DHT22;31358;46.008;11.144;2023-07-13T02:28:23;19.30;99.90
45643;DHT22;31358;46.008;11.144;2023-07-13T02:30:49;19.40;99.90
45643;DHT22;31358;46.008;11.144;2023-07-13T02:33:15;19.50;99.90
45643;DHT22;31358;46.008;11.144;2023-07-13T02:35:41;19.60;99.90
45643;DHT22;31358;46.008;11.144;2023-07-13T02:38:07;19.50;99.90
45643;DHT22;31358;46.008;11.144;2023-07-13T02:40:32;19.20;99.90
45643;DHT22;31358;46.008;11.144;2023-07-13T02:42:59;19.20;99.90
45643;DHT22;31358;46.008;11.144;2023-07-13T02:45:25;19.30;99.90
45643;DHT22;31358;46.008;11.144;2023-07-13T02:47:51;19.50;99.90
45643;DHT22;31358;46.008;11.144;2023-07-13T02:50:17;19.30;99.90
45643;DHT22;31358;46.008;11.144;2023-07-13T02:52:43;19.30;99.90
45643;DHT22;31358;46.008;11.144;2023-07-13T02:55:09;19.30;99.90
45643;DHT22;31358;46.008;11.144;2023-07-13T02:57:35;19.40;99.90
45643;DHT22;31358;46.008;11.144;2023-07-13T03:00:02;19.40;99.90
45643;DHT22;31358;46.008;11.144;2023-07-13T03:02:31;19.50;99.90
45643;DHT22;31358;46.008;11.144;2023-07-13T03:04:57;19.40;99.90
45643;DHT22;31358;46.008;11.144;2023-07-13T03:07:23;19.40;99.90
45643;DHT22;31358;46.008;11.144;2023-07-13T03:09:49;19.60;99.90
45643;DHT22;31358;46.008;11.144;2023-07-13T03:12:18;19.50;99.90
45643;DHT22;31358;46.008;11.144;2023-07-13T03:14:44;19.40;99.90
45643;DHT22;31358;46.008;11.144;2023-07-13T03:17:09;19.40;99.90
45643;DHT22;31358;46.008;11.144;2023-07-13T03:19:35;19.40;99.90
45643;DHT22;31358;46.008;11.144;2023-07-13T03:22:01;19.60;99.90
45643;DHT22;31358;46.008;11.144;2023-07-13T03:24:26;19.60;99.90
45643;DHT22;31358;46.008;11.144;2023-07-13T03:26:52;19.70;99.90
45643;DHT22;31358;46.008;11.144;2023-07-13T03:29:18;19.50;99.90
45643;DHT22;31358;46.008;11.144;2023-07-13T03:31:43;19.40;99.90
45643;DHT22;31358;46.008;11.144;2023-07-13T03:34:09;19.40;99.90
45643;DHT22;31358;46.008;11.144;2023-07-13T03:36:35;19.50;99.90
45643;DHT22;31358;46.008;11.144;2023-07-13T03:39:02;19.60;99.90
45643;DHT22;31358;46.008;11.144;2023-07-13T03:41:28;19.60;99.90
45643;DHT22;31358;46.008;11.144;2023-07-13T03:43:54;19.40;99.90
45643;DHT22;31358;46.008;11.144;2023-07-13T03:46:20;19.40;99.90
45643;DHT22;31358;46.008;11.144;2023-07-13T03:48:47;19.40;99.90
45643;DHT22;31358;46.008;11.144;2023-07-13T03:51:14;19.20;99.90
45643;DHT22;31358;46.008;11.144;2023-07-13T03:53:43;19.40;99.90
45643;DHT22;31358;46.008;11.144;2023-07-13T03:56:10;19.40;99.90
45643;DHT22;31358;46.008;11.144;2023-07-13T03:58:40;19.40;99.90
45643;DHT22;31358;46.008;11.144;2023-07-13T04:01:08;19.50;99.90
45643;DHT22;31358;46.008;11.144;2023-07-13T04:03:34;19.60;99.90
45643;DHT22;31358;46.008;11.144;2023-07-13T04:06:01;19.60;99.90
45643;DHT22;31358;46.008;11.144;2023-07-13T04:08:28;19.70;99.90
45643;DHT22;31358;46.008;11.144;2023-07-13T04:10:54;19.70;99.90
45643;DHT22;31358;46.008;11.144;2023-07-13T04:13:20;19.70;99.90
45643;DHT22;31358;46.008;11.144;2023-07-13T04:15:46;19.60;99.90
45643;DHT22;31358;46.008;11.144;2023-07-13T04:18:11;19.70;99.90
45643;DHT22;31358;46.008;11.144;2023-07-13T04:20:37;19.80;99.90
45643;DHT22;31358;46.008;11.144;2023-07-13T04:23:03;19.70;99.90
45643;DHT22;31358;46.008;11.144;2023-07-13T04:25:29;19.70;99.90
45643;DHT22;31358;46.008;11.144;2023-07-13T04:27:55;19.70;99.90
45643;DHT22;31358;46.008;11.144;2023-07-13T04:30:20;19.70;99.90
45643;DHT22;31358;46.008;11.144;2023-07-13T04:32:47;19.70;99.90
45643;DHT22;31358;46.008;11.144;2023-07-13T04:35:12;19.70;99.90
45643;DHT22;31358;46.008;11.144;2023-07-13T04:37:40;19.80;99.90
45643;DHT22;31358;46.008;11.144;2023-07-13T04:40:06;19.70;99.90
45643;DHT22;31358;46.008;11.144;2023-07-13T04:42:31;19.60;99.90
45643;DHT22;31358;46.008;11.144;2023-07-13T04:44:59;19.70;99.90
45643;DHT22;31358;46.008;11.144;2023-07-13T04:47:25;19.70;99.90
45643;DHT22;31358;46.008;11.144;2023-07-13T04:49:51;19.60;99.90
45643;DHT22;31358;46.008;11.144;2023-07-13T04:52:16;19.70;99.90
45643;DHT22;31358;46.008;11.144;2023-07-13T04:54:42;19.70;99.90
45643;DHT22;31358;46.008;11.144;2023-07-13T04:57:08;19.80;99.90
45643;DHT22;31358;46.008;11.144;2023-07-13T04:59:34;19.80;99.90
45643;DHT22;31358;46.008;11.144;2023-07-13T05:02:00;19.80;99.90
45643;DHT22;31358;46.008;11.144;2023-07-13T05:04:27;19.90;99.90
45643;DHT22;31358;46.008;11.144;2023-07-13T05:06:52;20.00;99.90
45643;DHT22;31358;46.008;11.144;2023-07-13T05:09:18;20.00;99.90
45643;DHT22;31358;46.008;11.144;2023-07-13T05:11:44;20.00;99.90
45643;DHT22;31358;46.008;11.144;2023-07-13T05:14:10;20.00;99.90
45643;DHT22;31358;46.008;11.144;2023-07-13T05:16:36;20.10;99.90
45643;DHT22;31358;46.008;11.144;2023-07-13T05:19:02;20.10;99.90
45643;DHT22;31358;46.008;11.144;2023-07-13T05:21:28;20.20;99.90
45643;DHT22;31358;46.008;11.144;2023-07-13T05:23:54;20.30;99.90
45643;DHT22;31358;46.008;11.144;2023-07-13T05:26:19;20.40;99.90
45643;DHT22;31358;46.008;11.144;2023-07-13T05:28:46;20.30;99.90
45643;DHT22;31358;46.008;11.144;2023-07-13T05:31:12;20.30;99.90
45643;DHT22;31358;46.008;11.144;2023-07-13T05:33:39;20.30;99.90
45643;DHT22;31358;46.008;11.144;2023-07-13T05:36:05;20.30;99.90
45643;DHT22;31358;46.008;11.144;2023-07-13T05:38:30;20.30;99.90
45643;DHT22;31358;46.008;11.144;2023-07-13T05:40:56;20.30;99.90
45643;DHT22;31358;46.008;11.144;2023-07-13T05:43:22;20.30;99.90
45643;DHT22;31358;46.008;11.144;2023-07-13T05:45:49;20.40;99.90
45643;DHT22;31358;46.008;11.144;2023-07-13T05:48:15;20.30;99.90
45643;DHT22;31358;46.008;11.144;2023-07-13T05:50:41;20.40;99.90
45643;DHT22;31358;46.008;11.144;2023-07-13T05:53:07;20.40;99.90
45643;DHT22;31358;46.008;11.144;2023-07-13T05:55:32;20.40;99.90
45643;DHT22;31358;46.008;11.144;2023-07-13T05:57:59;20.30;99.90
45643;DHT22;31358;46.008;11.144;2023-07-13T06:00:25;20.00;99.90
45643;DHT22;31358;46.008;11.144;2023-07-13T06:02:51;20.00;99.90
45643;DHT22;31358;46.008;11.144;2023-07-13T06:05:17;20.10;99.90
45643;DHT22;31358;46.008;11.144;2023-07-13T06:07:43;20.10;99.90
45643;DHT22;31358;46.008;11.144;2023-07-13T06:10:09;20.10;99.90
45643;DHT22;31358;46.008;11.144;2023-07-13T06:12:35;19.90;99.90
45643;DHT22;31358;46.008;11.144;2023-07-13T06:15:01;20.10;99.90
45643;DHT22;31358;46.008;11.144;2023-07-13T06:17:26;20.20;99.90
45643;DHT22;31358;46.008;11.144;2023-07-13T06:19:52;20.40;99.90
45643;DHT22;31358;46.008;11.144;2023-07-13T06:22:18;20.50;99.90
45643;DHT22;31358;46.008;11.144;2023-07-13T06:24:43;20.60;99.90
45643;DHT22;31358;46.008;11.144;2023-07-13T06:27:09;20.70;99.90
45643;DHT22;31358;46.008;11.144;2023-07-13T06:29:35;20.80;99.90
45643;DHT22;31358;46.008;11.144;2023-07-13T06:32:01;20.90;99.90
45643;DHT22;31358;46.008;11.144;2023-07-13T06:34:27;20.90;99.90
45643;DHT22;31358;46.008;11.144;2023-07-13T06:36:56;21.00;99.90
45643;DHT22;31358;46.008;11.144;2023-07-13T06:39:22;21.00;99.90
45643;DHT22;31358;46.008;11.144;2023-07-13T06:41:48;21.30;99.90
45643;DHT22;31358;46.008;11.144;2023-07-13T06:44:13;21.60;99.90
45643;DHT22;31358;46.008;11.144;2023-07-13T06:46:39;21.70;99.90
45643;DHT22;31358;46.008;11.144;2023-07-13T06:49:05;21.60;99.90
45643;DHT22;31358;46.008;11.144;2023-07-13T06:51:30;21.40;99.90
45643;DHT22;31358;46.008;11.144;2023-07-13T06:53:56;21.40;99.90
45643;DHT22;31358;46.008;11.144;2023-07-13T06:56:22;21.60;99.90
45643;DHT22;31358;46.008;11.144;2023-07-13T06:58:47;21.70;99.90
45643;DHT22;31358;46.008;11.144;2023-07-13T07:01:13;21.60;99.90
45643;DHT22;31358;46.008;11.144;2023-07-13T07:03:39;21.40;99.90
45643;DHT22;31358;46.008;11.144;2023-07-13T07:08:39;21.20;99.90
45643;DHT22;31358;46.008;11.144;2023-07-13T07:11:08;21.00;99.90
45643;DHT22;31358;46.008;11.144;2023-07-13T07:13:33;20.90;99.90
45643;DHT22;31358;46.008;11.144;2023-07-13T07:15:59;20.80;99.90
45643;DHT22;31358;46.008;11.144;2023-07-13T07:18:26;20.80;99.90
45643;DHT22;31358;46.008;11.144;2023-07-13T07:20:52;20.80;99.90
45643;DHT22;31358;46.008;11.144;2023-07-13T07:23:17;20.50;99.90
45643;DHT22;31358;46.008;11.144;2023-07-13T07:25:44;20.50;99.90
45643;DHT22;31358;46.008;11.144;2023-07-13T07:28:10;20.50;99.90
45643;DHT22;31358;46.008;11.144;2023-07-13T07:30:36;20.40;99.90
45643;DHT22;31358;46.008;11.144;2023-07-13T07:33:03;20.50;99.90
45643;DHT22;31358;46.008;11.144;2023-07-13T07:35:29;20.50;99.90
45643;DHT22;31358;46.008;11.144;2023-07-13T07:37:54;20.50;99.90
45643;DHT22;31358;46.008;11.144;2023-07-13T07:40:20;20.30;99.90
45643;DHT22;31358;46.008;11.144;2023-07-13T07:42:46;20.20;99.90
45643;DHT22;31358;46.008;11.144;2023-07-13T07:45:11;20.10;99.90
45643;DHT22;31358;46.008;11.144;2023-07-13T07:47:37;20.10;99.90
45643;DHT22;31358;46.008;11.144;2023-07-13T07:50:04;20.00;99.90
45643;DHT22;31358;46.008;11.144;2023-07-13T07:52:30;19.90;99.90
45643;DHT22;31358;46.008;11.144;2023-07-13T07:54:55;20.00;99.90
45643;DHT22;31358;46.008;11.144;2023-07-13T07:57:21;20.10;99.90
45643;DHT22;31358;46.008;11.144;2023-07-13T07:59:47;19.80;99.90
45643;DHT22;31358;46.008;11.144;2023-07-13T08:02:14;19.80;99.90
45643;DHT22;31358;46.008;11.144;2023-07-13T08:04:39;19.80;99.90
45643;DHT22;31358;46.008;11.144;2023-07-13T08:07:05;20.00;99.90
45643;DHT22;31358;46.008;11.144;2023-07-13T08:09:32;20.30;99.90
45643;DHT22;31358;46.008;11.144;2023-07-13T08:11:57;20.50;99.90
45643;DHT22;31358;46.008;11.144;2023-07-13T08:14:23;20.40;99.90
45643;DHT22;31358;46.008;11.144;2023-07-13T08:16:49;20.50;99.90
45643;DHT22;31358;46.008;11.144;2023-07-13T08:19:15;20.80;99.90
45643;DHT22;31358;46.008;11.144;2023-07-13T08:21:41;21.40;99.90
45643;DHT22;31358;46.008;11.144;2023-07-13T08:24:08;21.50;99.90
45643;DHT22;31358;46.008;11.144;2023-07-13T08:26:34;21.70;99.90
45643;DHT22;31358;46.008;11.144;2023-07-13T08:29:00;22.00;99.90
45643;DHT22;31358;46.008;11.144;2023-07-13T08:31:26;22.10;99.90
45643;DHT22;31358;46.008;11.144;2023-07-13T08:33:52;22.30;99.90
45643;DHT22;31358;46.008;11.144;2023-07-13T08:36:17;22.40;99.90
45643;DHT22;31358;46.008;11.144;2023-07-13T08:38:43;22.20;99.90
45643;DHT22;31358;46.008;11.144;2023-07-13T08:41:14;22.10;99.90
45643;DHT22;31358;46.008;11.144;2023-07-13T08:43:42;22.00;99.90
45643;DHT22;31358;46.008;11.144;2023-07-13T08:48:59;22.10;99.90
45643;DHT22;31358;46.008;11.144;2023-07-13T08:52:21;21.70;99.90
45643;DHT22;31358;46.008;11.144;2023-07-13T08:56:43;22.20;99.90
45643;DHT22;31358;46.008;11.144;2023-07-13T08:59:13;22.30;99.90
45643;DHT22;31358;46.008;11.144;2023-07-13T09:04:37;22.60;99.90
45643;DHT22;31358;46.008;11.144;2023-07-13T09:09:36;22.90;99.90
45643;DHT22;31358;46.008;11.144;2023-07-13T09:12:22;23.00;99.90
45643;DHT22;31358;46.008;11.144;2023-07-13T09:14:55;22.90;99.90
45643;DHT22;31358;46.008;11.144;2023-07-13T09:17:34;23.10;99.90
45643;DHT22;31358;46.008;11.144;2023-07-13T09:22:52;23.00;99.90
45643;DHT22;31358;46.008;11.144;2023-07-13T09:25:35;23.00;99.90
45643;DHT22;31358;46.008;11.144;2023-07-13T09:28:29;23.00;99.90
45643;DHT22;31358;46.008;11.144;2023-07-13T09:31:26;22.90;99.90
45643;DHT22;31358;46.008;11.144;2023-07-13T09:33:55;23.10;99.90
45643;DHT22;31358;46.008;11.144;2023-07-13T09:36:31;23.10;99.90
45643;DHT22;31358;46.008;11.144;2023-07-13T09:39:33;23.10;99.90
45643;DHT22;31358;46.008;11.144;2023-07-13T09:44:59;23.30;99.90
45643;DHT22;31358;46.008;11.144;2023-07-13T09:47:27;23.20;99.90
45643;DHT22;31358;46.008;11.144;2023-07-13T09:50:02;23.30;99.90
45643;DHT22;31358;46.008;11.144;2023-07-13T09:52:44;23.10;99.90
45643;DHT22;31358;46.008;11.144;2023-07-13T09:55:34;23.30;99.90
45643;DHT22;31358;46.008;11.144;2023-07-13T09:58:22;23.60;99.90
45643;DHT22;31358;46.008;11.144;2023-07-13T10:01:00;23.20;99.90
45643;DHT22;31358;46.008;11.144;2023-07-13T10:03:29;23.70;99.90
45643;DHT22;31358;46.008;11.144;2023-07-13T10:06:18;24.20;99.90
45643;DHT22;31358;46.008;11.144;2023-07-13T10:08:48;24.40;99.90
45643;DHT22;31358;46.008;11.144;2023-07-13T10:11:28;24.10;99.90
45643;DHT22;31358;46.008;11.144;2023-07-13T10:13:56;24.30;99.90
45643;DHT22;31358;46.008;11.144;2023-07-13T10:16:25;24.90;99.90
45643;DHT22;31358;46.008;11.144;2023-07-13T10:19:10;24.70;99.90
45643;DHT22;31358;46.008;11.144;2023-07-13T10:22:02;24.50;99.90
45643;DHT22;31358;46.008;11.144;2023-07-13T10:24:32;24.40;99.90
45643;DHT22;31358;46.008;11.144;2023-07-13T10:29:29;24.30;99.90
45643;DHT22;31358;46.008;11.144;2023-07-13T10:32:00;24.10;99.90
45643;DHT22;31358;46.008;11.144;2023-07-13T10:34:26;24.20;99.90
45643;DHT22;31358;46.008;11.144;2023-07-13T10:36:52;24.60;99.90
45643;DHT22;31358;46.008;11.144;2023-07-13T10:39:24;25.10;99.90
45643;DHT22;31358;46.008;11.144;2023-07-13T10:41:54;25.40;99.90
45643;DHT22;31358;46.008;11.144;2023-07-13T10:44:29;25.60;99.90
45643;DHT22;31358;46.008;11.144;2023-07-13T10:46:58;25.30;99.90
45643;DHT22;31358;46.008;11.144;2023-07-13T10:49:27;25.50;99.90
45643;DHT22;31358;46.008;11.144;2023-07-13T10:51:53;25.90;99.90
45643;DHT22;31358;46.008;11.144;2023-07-13T10:54:36;25.90;99.90
45643;DHT22;31358;46.008;11.144;2023-07-13T10:57:19;26.00;99.90
45643;DHT22;31358;46.008;11.144;2023-07-13T11:00:15;26.20;99.90
45643;DHT22;31358;46.008;11.144;2023-07-13T11:02:41;26.20;99.90
45643;DHT22;31358;46.008;11.144;2023-07-13T11:05:32;26.60;99.90
45643;DHT22;31358;46.008;11.144;2023-07-13T11:08:23;26.50;99.90
45643;DHT22;31358;46.008;11.144;2023-07-13T11:10:56;26.20;99.90
45643;DHT22;31358;46.008;11.144;2023-07-13T11:21:29;26.20;99.90
45643;DHT22;31358;46.008;11.144;2023-07-13T11:24:14;26.00;99.90
45643;DHT22;31358;46.008;11.144;2023-07-13T11:26:50;25.90;99.90
45643;DHT22;31358;46.008;11.144;2023-07-13T11:31:59;26.50;99.90
45643;DHT22;31358;46.008;11.144;2023-07-13T11:34:37;26.60;99.90
45643;DHT22;31358;46.008;11.144;2023-07-13T11:37:03;26.90;99.90
45643;DHT22;31358;46.008;11.144;2023-07-13T11:42:02;27.00;99.90
45643;DHT22;31358;46.008;11.144;2023-07-13T11:44:30;27.20;99.90
45643;DHT22;31358;46.008;11.144;2023-07-13T11:47:10;27.20;99.90
45643;DHT22;31358;46.008;11.144;2023-07-13T11:49:49;27.10;99.90
45643;DHT22;31358;46.008;11.144;2023-07-13T11:52:18;27.30;99.90
45643;DHT22;31358;46.008;11.144;2023-07-13T11:54:52;27.30;99.90
45643;DHT22;31358;46.008;11.144;2023-07-13T11:57:32;27.50;99.90
45643;DHT22;31358;46.008;11.144;2023-07-13T12:00:03;27.70;99.90
45643;DHT22;31358;46.008;11.144;2023-07-13T12:02:43;27.60;99.90
45643;DHT22;31358;46.008;11.144;2023-07-13T12:05:15;27.10;99.90
45643;DHT22;31358;46.008;11.144;2023-07-13T12:07:41;26.90;99.90
45643;DHT22;31358;46.008;11.144;2023-07-13T12:10:27;26.80;99.90
45643;DHT22;31358;46.008;11.144;2023-07-13T12:13:03;27.20;99.90
45643;DHT22;31358;46.008;11.144;2023-07-13T12:18:10;27.00;99.90
45643;DHT22;31358;46.008;11.144;2023-07-13T12:20:38;26.90;99.90
45643;DHT22;31358;46.008;11.144;2023-07-13T12:25:46;26.70;99.80
45643;DHT22;31358;46.008;11.144;2023-07-13T12:28:28;26.70;99.90
45643;DHT22;31358;46.008;11.144;2023-07-13T12:31:00;26.80;99.90
45643;DHT22;31358;46.008;11.144;2023-07-13T12:33:29;26.90;99.90
45643;DHT22;31358;46.008;11.144;2023-07-13T12:35:55;26.80;99.90
45643;DHT22;31358;46.008;11.144;2023-07-13T12:38:21;26.70;99.90
45643;DHT22;31358;46.008;11.144;2023-07-13T12:40:50;26.40;99.90
45643;DHT22;31358;46.008;11.144;2023-07-13T12:43:17;26.30;99.90
45643;DHT22;31358;46.008;11.144;2023-07-13T12:45:57;26.20;99.90
45643;DHT22;31358;46.008;11.144;2023-07-13T12:48:23;26.10;99.90
45643;DHT22;31358;46.008;11.144;2023-07-13T12:50:50;25.70;99.90
45643;DHT22;31358;46.008;11.144;2023-07-13T12:53:38;25.50;99.90
45643;DHT22;31358;46.008;11.144;2023-07-13T12:56:05;25.30;99.90
45643;DHT22;31358;46.008;11.144;2023-07-13T12:58:38;24.90;99.90
45643;DHT22;31358;46.008;11.144;2023-07-13T13:01:07;24.60;99.90
45643;DHT22;31358;46.008;11.144;2023-07-13T13:03:38;24.50;99.90
45643;DHT22;31358;46.008;11.144;2023-07-13T13:06:17;24.40;99.90
45643;DHT22;31358;46.008;11.144;2023-07-13T13:08:50;24.20;99.90
45643;DHT22;31358;46.008;11.144;2023-07-13T13:11:17;24.10;99.90
45643;DHT22;31358;46.008;11.144;2023-07-13T13:13:43;23.60;99.90
45643;DHT22;31358;46.008;11.144;2023-07-13T13:16:11;23.10;99.90
45643;DHT22;31358;46.008;11.144;2023-07-13T13:18:37;22.80;99.90
45643;DHT22;31358;46.008;11.144;2023-07-13T13:21:03;22.30;99.90
45643;DHT22;31358;46.008;11.144;2023-07-13T13:23:28;22.70;99.90
45643;DHT22;31358;46.008;11.144;2023-07-13T13:25:54;22.70;99.90
45643;DHT22;31358;46.008;11.144;2023-07-13T13:28:21;22.30;99.90
45643;DHT22;31358;46.008;11.144;2023-07-13T13:30:50;22.00;99.90
45643;DHT22;31358;46.008;11.144;2023-07-13T13:33:19;21.90;99.90
45643;DHT22;31358;46.008;11.144;2023-07-13T13:35:45;21.70;99.90
45643;DHT22;31358;46.008;11.144;2023-07-13T13:38:16;21.60;99.90
45643;DHT22;31358;46.008;11.144;2023-07-13T13:40:43;21.20;99.90
45643;DHT22;31358;46.008;11.144;2023-07-13T13:43:23;21.00;99.90
45643;DHT22;31358;46.008;11.144;2023-07-13T13:45:56;20.80;99.90
45643;DHT22;31358;46.008;11.144;2023-07-13T13:48:35;20.90;99.90
45643;DHT22;31358;46.008;11.144;2023-07-13T13:51:14;21.00;99.90
45643;DHT22;31358;46.008;11.144;2023-07-13T13:53:40;21.10;99.90
45643;DHT22;31358;46.008;11.144;2023-07-13T13:56:05;21.10;99.90
45643;DHT22;31358;46.008;11.144;2023-07-13T13:58:31;21.40;99.90
45643;DHT22;31358;46.008;11.144;2023-07-13T14:00:57;21.30;99.90
45643;DHT22;31358;46.008;11.144;2023-07-13T14:03:23;21.30;99.90
45643;DHT22;31358;46.008;11.144;2023-07-13T14:05:49;20.80;99.90
45643;DHT22;31358;46.008;11.144;2023-07-13T14:08:19;20.70;99.90
45643;DHT22;31358;46.008;11.144;2023-07-13T14:10:50;20.70;99.90
45643;DHT22;31358;46.008;11.144;2023-07-13T14:13:19;20.70;99.90
45643;DHT22;31358;46.008;11.144;2023-07-13T14:15:47;20.80;99.90
45643;DHT22;31358;46.008;11.144;2023-07-13T14:18:13;21.20;99.90
45643;DHT22;31358;46.008;11.144;2023-07-13T14:20:44;21.20;99.90
45643;DHT22;31358;46.008;11.144;2023-07-13T14:23:12;20.90;99.90
45643;DHT22;31358;46.008;11.144;2023-07-13T14:25:38;20.80;99.90
45643;DHT22;31358;46.008;11.144;2023-07-13T14:28:24;20.90;99.90
45643;DHT22;31358;46.008;11.144;2023-07-13T14:30:51;20.80;99.90
45643;DHT22;31358;46.008;11.144;2023-07-13T14:33:17;20.80;99.90
45643;DHT22;31358;46.008;11.144;2023-07-13T14:35:43;20.80;99.90
45643;DHT22;31358;46.008;11.144;2023-07-13T14:38:18;20.80;99.90
45643;DHT22;31358;46.008;11.144;2023-07-13T14:40:45;20.80;99.90
45643;DHT22;31358;46.008;11.144;2023-07-13T14:43:15;20.80;99.90
45643;DHT22;31358;46.008;11.144;2023-07-13T14:45:44;20.60;99.90
45643;DHT22;31358;46.008;11.144;2023-07-13T14:48:37;20.70;99.90
45643;DHT22;31358;46.008;11.144;2023-07-13T14:51:03;20.60;99.90
45643;DHT22;31358;46.008;11.144;2023-07-13T14:53:29;20.60;99.90
45643;DHT22;31358;46.008;11.144;2023-07-13T14:55:55;20.60;99.90
45643;DHT22;31358;46.008;11.144;2023-07-13T14:58:21;20.50;99.90
45643;DHT22;31358;46.008;11.144;2023-07-13T15:00:46;20.30;99.90
45643;DHT22;31358;46.008;11.144;2023-07-13T15:03:23;20.20;99.90
45643;DHT22;31358;46.008;11.144;2023-07-13T15:05:50;20.10;99.90
45643;DHT22;31358;46.008;11.144;2023-07-13T15:08:16;20.10;99.90
45643;DHT22;31358;46.008;11.144;2023-07-13T15:10:42;20.20;99.90
45643;DHT22;31358;46.008;11.144;2023-07-13T15:13:19;20.40;99.90
45643;DHT22;31358;46.008;11.144;2023-07-13T15:15:49;20.40;99.90
45643;DHT22;31358;46.008;11.144;2023-07-13T15:18:19;20.50;99.90
45643;DHT22;31358;46.008;11.144;2023-07-13T15:20:47;20.60;99.90
45643;DHT22;31358;46.008;11.144;2023-07-13T15:23:15;20.80;99.90
45643;DHT22;31358;46.008;11.144;2023-07-13T15:25:42;20.70;99.90
45643;DHT22;31358;46.008;11.144;2023-07-13T15:28:09;20.90;99.90
45643;DHT22;31358;46.008;11.144;2023-07-13T15:30:43;20.80;99.90
45643;DHT22;31358;46.008;11.144;2023-07-13T15:33:27;20.90;99.90
45643;DHT22;31358;46.008;11.144;2023-07-13T15:35:53;21.10;99.90
45643;DHT22;31358;46.008;11.144;2023-07-13T15:38:28;21.10;99.90
45643;DHT22;31358;46.008;11.144;2023-07-13T15:40:55;21.20;99.90
45643;DHT22;31358;46.008;11.144;2023-07-13T15:43:22;21.50;99.90
45643;DHT22;31358;46.008;11.144;2023-07-13T15:45:48;21.80;99.90
45643;DHT22;31358;46.008;11.144;2023-07-13T15:48:17;21.90;99.90
45643;DHT22;31358;46.008;11.144;2023-07-13T15:50:49;22.00;99.90
45643;DHT22;31358;46.008;11.144;2023-07-13T15:53:27;22.20;99.90
45643;DHT22;31358;46.008;11.144;2023-07-13T15:55:54;22.50;99.90
45643;DHT22;31358;46.008;11.144;2023-07-13T15:58:21;22.90;99.90
45643;DHT22;31358;46.008;11.144;2023-07-13T16:00:47;23.10;99.90
45643;DHT22;31358;46.008;11.144;2023-07-13T16:03:20;23.00;99.90
45643;DHT22;31358;46.008;11.144;2023-07-13T16:05:46;23.20;99.90
45643;DHT22;31358;46.008;11.144;2023-07-13T16:08:31;23.40;99.90